Time,TemperatureF,DewpointF,PressureIn,WindDirection,WindDirectionDegrees,WindSpeedMPH,WindSpeedGustMPH,Humidity,HourlyPrecipIn,Conditions,Clouds,dailyrainin,SoftwareType,DateUTC
2013-06-04 04:32:00,36.0,36.0,-100.00,NW,308,5.0,-999.0,99,-99.99,,,-99.99,,2013-06-04 08:32:00,
2013-06-04 04:42:00,36.0,36.0,-100.00,NW,308,5.0,-999.0,99,-99.99,,,-99.99,,2013-06-04 08:42:00,
2013-06-04 05:33:00,36.0,35.0,-100.00,NNW,328,0.0,6.0,98,-99.99,,,-99.99,,2013-06-04 09:33:00,
2013-06-04 05:43:00,36.0,35.0,-100.00,South,185,5.0,6.0,98,-99.99,,,-99.99,,2013-06-04 09:43:00,
2013-06-04 06:52:00,35.0,34.0,-100.00,South,180,5.0,6.0,96,-99.99,,,-99.99,,2013-06-04 10:52:00,
2013-06-04 07:02:00,35.0,34.0,-100.00,South,180,5.0,6.0,96,-99.99,,,-99.99,,2013-06-04 11:02:00,
2013-06-04 07:52:00,40.0,35.0,-100.00,ESE,115,0.0,3.0,82,-99.99,,,-99.99,,2013-06-04 11:52:00,
2013-06-04 08:02:00,40.0,35.0,-100.00,ESE,115,0.0,3.0,82,-99.99,,,-99.99,,2013-06-04 12:02:00,
2013-06-04 08:32:00,44.0,38.0,-100.00,ENE,70,0.0,2.0,79,-99.99,,,-99.99,,2013-06-04 12:32:00,
2013-06-04 08:52:00,48.0,38.0,-100.00,SSW,210,3.0,3.0,68,-99.99,,,-99.99,,2013-06-04 12:52:00,
2013-06-04 09:03:00,48.0,38.0,-100.00,SSW,210,3.0,3.0,68,-99.99,,,-99.99,,2013-06-04 13:03:00,
2013-06-04 10:02:00,55.0,41.0,-100.00,NNW,330,3.0,7.0,59,-99.99,,,-99.99,,2013-06-04 14:02:00,
2013-06-04 10:12:00,54.0,44.0,-100.00,NNW,345,5.0,7.0,70,-99.99,,,-99.99,,2013-06-04 14:12:00,
2013-06-04 10:43:00,55.0,42.0,-100.00,NW,325,5.0,6.0,62,-99.99,,,-99.99,,2013-06-04 14:43:00,
2013-06-04 11:12:00,52.0,43.0,-100.00,North,0,5.0,6.0,73,-99.99,,,-99.99,,2013-06-04 15:12:00,
2013-06-04 11:33:00,56.0,48.0,-100.00,East,85,2.0,6.0,74,-99.99,,,-99.99,,2013-06-04 15:33:00,
2013-06-04 11:42:00,56.0,48.0,-100.00,East,85,2.0,6.0,74,-99.99,,,-99.99,,2013-06-04 15:42:00,
2013-06-04 11:53:00,56.0,48.0,-100.00,East,85,2.0,5.0,74,-99.99,,,-99.99,,2013-06-04 15:53:00,
2013-06-04 12:03:00,56.0,48.0,-100.00,North,350,2.0,5.0,74,-99.99,,,-99.99,,2013-06-04 16:03:00,
2013-06-04 12:13:00,56.0,48.0,-100.00,North,350,2.0,5.0,74,-99.99,,,-99.99,,2013-06-04 16:13:00,
2013-06-04 12:23:00,56.0,48.0,-100.00,North,350,5.0,6.0,74,-99.99,,,-99.99,,2013-06-04 16:23:00,
2013-06-04 12:33:00,59.0,51.0,-100.00,NW,326,3.0,-999.0,74,-99.99,,,-99.99,,2013-06-04 16:33:00,
2013-06-04 12:42:00,59.0,51.0,-100.00,NW,326,3.0,5.0,74,-99.99,,,-99.99,,2013-06-04 16:42:00,
2013-06-04 12:52:00,59.0,51.0,-100.00,NW,315,5.0,6.0,74,-99.99,,,-99.99,,2013-06-04 16:52:00,
2013-06-04 13:03:00,59.0,51.0,-100.00,NW,315,5.0,6.0,74,-99.99,,,-99.99,,2013-06-04 17:03:00,
2013-06-04 13:12:00,59.0,51.0,-100.00,NW,325,5.0,7.0,74,-99.99,,,-99.99,,2013-06-04 17:12:00,
2013-06-04 13:23:00,59.0,51.0,-100.00,NW,320,5.0,7.0,74,-99.99,,,-99.99,,2013-06-04 17:23:00,
2013-06-04 13:33:00,61.0,53.0,-100.00,NNW,330,5.0,6.0,74,-99.99,,,-99.99,,2013-06-04 17:33:00,
2013-06-04 13:42:00,61.0,53.0,-100.00,North,350,3.0,6.0,74,-99.99,,,-99.99,,2013-06-04 17:42:00,
2013-06-04 13:52:00,61.0,53.0,-100.00,NNW,340,3.0,5.0,74,-99.99,,,-99.99,,2013-06-04 17:52:00,
2013-06-04 14:02:00,61.0,53.0,-100.00,NNW,340,3.0,5.0,74,-99.99,,,-99.99,,2013-06-04 18:02:00,
2013-06-04 14:12:00,61.0,53.0,-100.00,NNW,330,3.0,5.0,74,-99.99,,,-99.99,,2013-06-04 18:12:00,
2013-06-04 14:22:00,61.0,53.0,-100.00,NW,310,3.0,5.0,74,-99.99,,,-99.99,,2013-06-04 18:22:00,
2013-06-04 14:42:00,62.0,35.0,-100.00,NW,320,3.0,6.0,37,-99.99,,,-99.99,,2013-06-04 18:42:00,
2013-06-04 15:12:00,62.0,39.0,-100.00,NW,325,3.0,5.0,43,-99.99,,,-99.99,,2013-06-04 19:12:00,
2013-06-04 15:22:00,62.0,43.0,-100.00,NW,315,2.0,5.0,50,-99.99,,,-99.99,,2013-06-04 19:22:00,
2013-06-04 16:03:00,63.0,45.0,-100.00,NW,315,5.0,7.0,51,-99.99,,,-99.99,,2013-06-04 20:03:00,
2013-06-04 16:22:00,63.0,43.0,-100.00,NW,305,5.0,7.0,49,-99.99,,,-99.99,,2013-06-04 20:22:00,
2013-06-04 16:32:00,62.0,42.0,-100.00,WNW,300,3.0,9.0,48,-99.99,,,-99.99,,2013-06-04 20:32:00,
2013-06-04 16:42:00,62.0,42.0,-100.00,WNW,300,3.0,9.0,48,-99.99,,,-99.99,,2013-06-04 20:42:00,
2013-06-04 16:52:00,62.0,42.0,-100.00,WNW,300,3.0,9.0,48,-99.99,,,-99.99,,2013-06-04 20:52:00,
2013-06-04 17:12:00,62.0,45.0,-100.00,NW,315,7.0,9.0,54,-99.99,,,-99.99,,2013-06-04 21:12:00,
2013-06-04 17:33:00,61.0,44.0,-100.00,NNW,335,5.0,7.0,53,-99.99,,,-99.99,,2013-06-04 21:33:00,
2013-06-04 17:42:00,61.0,44.0,-100.00,NNW,335,5.0,7.0,53,-99.99,,,-99.99,,2013-06-04 21:42:00,
2013-06-04 17:53:00,61.0,45.0,-100.00,NW,310,2.0,5.0,55,-99.99,,,-99.99,,2013-06-04 21:53:00,
2013-06-04 18:02:00,61.0,45.0,-100.00,NW,310,2.0,5.0,55,-99.99,,,-99.99,,2013-06-04 22:02:00,
2013-06-04 18:13:00,61.0,45.0,-100.00,NW,310,2.0,5.0,55,-99.99,,,-99.99,,2013-06-04 22:13:00,
2013-06-04 18:22:00,61.0,45.0,-100.00,NW,310,2.0,3.0,55,-99.99,,,-99.99,,2013-06-04 22:22:00,
2013-06-04 18:33:00,61.0,45.0,-100.00,North,350,2.0,3.0,55,-99.99,,,-99.99,,2013-06-04 22:33:00,
2013-06-04 18:42:00,61.0,45.0,-100.00,North,350,2.0,3.0,55,-99.99,,,-99.99,,2013-06-04 22:42:00,
2013-06-04 18:52:00,61.0,45.0,-100.00,WNW,295,2.0,5.0,55,-99.99,,,-99.99,,2013-06-04 22:52:00,
2013-06-04 19:02:00,61.0,45.0,-100.00,WNW,295,2.0,5.0,55,-99.99,,,-99.99,,2013-06-04 23:02:00,
2013-06-04 19:12:00,61.0,45.0,-100.00,WNW,295,2.0,3.0,55,-99.99,,,-99.99,,2013-06-04 23:12:00,
2013-06-04 19:22:00,61.0,45.0,-100.00,WNW,295,2.0,3.0,55,-99.99,,,-99.99,,2013-06-04 23:22:00,
2013-06-04 19:32:00,58.0,42.0,-100.00,WSW,258,2.0,3.0,55,-99.99,,,-99.99,,2013-06-04 23:32:00,
2013-06-04 19:42:00,58.0,42.0,-100.00,WSW,258,2.0,6.0,55,-99.99,,,-99.99,,2013-06-04 23:42:00,
2013-06-04 19:52:00,58.0,42.0,-100.00,WSW,258,2.0,2.0,55,-99.99,,,-99.99,,2013-06-04 23:52:00,
2013-06-04 20:02:00,58.0,42.0,-100.00,WSW,258,2.0,3.0,55,-99.99,,,-99.99,,2013-06-05 00:02:00,
2013-06-04 20:12:00,58.0,42.0,-100.00,WSW,258,2.0,3.0,55,-99.99,,,-99.99,,2013-06-05 00:12:00,
2013-06-04 20:22:00,58.0,42.0,-100.00,North,0,1.0,2.0,55,-99.99,,,-99.99,,2013-06-05 00:22:00,
2013-06-04 20:42:00,54.0,33.0,-100.00,North,10,1.0,3.0,45,-99.99,,,-99.99,,2013-06-05 00:42:00,
2013-06-04 20:52:00,53.0,33.0,-100.00,North,10,1.0,3.0,45,-99.99,,,-99.99,,2013-06-05 00:52:00,
2013-06-04 21:02:00,53.0,33.0,-100.00,North,10,1.0,3.0,45,-99.99,,,-99.99,,2013-06-05 01:02:00,
2013-06-04 21:12:00,53.0,33.0,-100.00,North,10,1.0,3.0,45,-99.99,,,-99.99,,2013-06-05 01:12:00,
2013-06-04 21:22:00,53.0,33.0,-100.00,North,10,1.0,3.0,45,-99.99,,,-99.99,,2013-06-05 01:22:00,
2013-06-04 21:32:00,51.0,30.0,-100.00,East,80,1.0,2.0,45,-99.99,,,-99.99,,2013-06-05 01:32:00,
2013-06-04 21:42:00,51.0,30.0,-100.00,East,80,1.0,2.0,45,-99.99,,,-99.99,,2013-06-05 01:42:00,
2013-06-04 21:52:00,50.0,29.0,-100.00,East,80,1.0,1.0,45,-99.99,,,-99.99,,2013-06-05 01:52:00,
2013-06-04 22:02:00,50.0,29.0,-100.00,East,80,1.0,1.0,45,-99.99,,,-99.99,,2013-06-05 02:02:00,
2013-06-04 22:12:00,50.0,29.0,-100.00,East,80,1.0,1.0,45,-99.99,,,-99.99,,2013-06-05 02:12:00,
2013-06-04 22:22:00,50.0,29.0,-100.00,West,272,1.0,2.0,45,-99.99,,,-99.99,,2013-06-05 02:22:00,
2013-06-04 22:32:00,48.0,28.0,-100.00,WNW,292,1.0,5.0,45,-99.99,,,-99.99,,2013-06-05 02:32:00,
2013-06-04 22:42:00,48.0,28.0,-100.00,WNW,292,1.0,5.0,45,-99.99,,,-99.99,,2013-06-05 02:42:00,
2013-06-04 22:52:00,48.0,28.0,-100.00,NW,315,2.0,3.0,45,-99.99,,,-99.99,,2013-06-05 02:52:00,
2013-06-04 23:02:00,48.0,28.0,-100.00,NW,315,2.0,3.0,45,-99.99,,,-99.99,,2013-06-05 03:02:00,
2013-06-04 23:12:00,48.0,28.0,-100.00,NW,315,2.0,3.0,45,-99.99,,,-99.99,,2013-06-05 03:12:00,
2013-06-04 23:22:00,48.0,28.0,-100.00,South,170,2.0,2.0,45,-99.99,,,-99.99,,2013-06-05 03:22:00,
2013-06-04 23:33:00,48.0,28.0,-100.00,WNW,288,1.0,1.0,45,-99.99,,,-99.99,,2013-06-05 03:33:00,
2013-06-04 23:43:00,48.0,28.0,-100.00,WNW,288,1.0,1.0,45,-99.99,,,-99.99,,2013-06-05 03:43:00,
2013-06-04 23:53:00,48.0,28.0,-100.00,WNW,288,1.0,5.0,45,-99.99,,,-99.99,,2013-06-05 03:53:00,